createdAt,value
2023-02-07T00:01:35.020Z,0.39
2023-02-07T00:04:02.868Z,0.37
2023-02-07T00:06:34.898Z,0.44
2023-02-07T00:09:07.249Z,0.45
2023-02-07T00:11:37.075Z,0.40
2023-02-07T00:14:05.165Z,0.33
2023-02-07T00:16:33.001Z,0.40
2023-02-07T00:19:01.036Z,0.40
2023-02-07T00:21:29.101Z,0.44
2023-02-07T00:23:57.580Z,0.43
2023-02-07T00:26:27.140Z,0.38
2023-02-07T00:28:56.186Z,0.44
2023-02-07T00:31:33.282Z,0.48
2023-02-07T00:34:05.674Z,0.43
2023-02-07T00:36:36.865Z,0.27
2023-02-07T00:39:15.151Z,0.22
2023-02-07T00:41:44.860Z,0.18
2023-02-07T00:44:12.978Z,0.19
2023-02-07T00:46:41.012Z,0.34
2023-02-07T00:49:14.713Z,0.47
2023-02-07T00:51:45.859Z,0.15
2023-02-07T00:54:14.606Z,0.12
2023-02-07T00:56:42.390Z,0.41
2023-02-07T00:59:10.147Z,0.43
2023-02-07T01:01:40.216Z,0.41
2023-02-07T01:04:07.972Z,0.45
2023-02-07T01:06:37.160Z,0.43
2023-02-07T01:09:06.882Z,0.43
2023-02-07T01:11:34.596Z,0.32
2023-02-07T01:14:03.397Z,0.41
2023-02-07T01:16:40.454Z,0.31
2023-02-07T01:19:10.997Z,0.42
2023-02-07T01:21:40.513Z,0.31
2023-02-07T01:24:09.510Z,0.00
2023-02-07T01:26:44.557Z,-0.07
2023-02-07T01:29:15.667Z,0.24
2023-02-07T01:31:43.803Z,0.24
2023-02-07T01:34:13.453Z,0.26
2023-02-07T01:36:41.282Z,0.25
2023-02-07T01:39:09.952Z,0.14
2023-02-07T01:41:37.980Z,0.00
2023-02-07T01:44:28.737Z,0.04
2023-02-07T01:46:57.362Z,-0.01
2023-02-07T01:49:30.528Z,-0.05
2023-02-07T01:52:08.470Z,-0.02
2023-02-07T01:54:37.896Z,-0.01
2023-02-07T01:57:09.007Z,-0.04
2023-02-07T01:59:40.964Z,-0.10
2023-02-07T02:02:08.673Z,0.00
2023-02-07T02:04:36.395Z,0.06
2023-02-07T02:07:06.981Z,0.06
2023-02-07T02:09:36.333Z,0.03
2023-02-07T02:12:25.399Z,0.06
2023-02-07T02:15:11.412Z,-0.02
2023-02-07T02:17:44.001Z,0.00
2023-02-07T02:20:45.213Z,0.09
2023-02-07T02:23:20.820Z,0.07
2023-02-07T02:26:03.783Z,-0.01
2023-02-07T02:28:43.484Z,0.04
2023-02-07T02:32:01.830Z,0.05
2023-02-07T02:35:13.739Z,-0.04
2023-02-07T02:38:13.248Z,0.09
2023-02-07T02:40:56.986Z,0.10
2023-02-07T02:43:31.874Z,0.09
2023-02-07T02:46:07.617Z,0.03
2023-02-07T02:48:36.400Z,-0.06
2023-02-07T02:51:05.153Z,-0.10
2023-02-07T02:53:33.065Z,-0.19
2023-02-07T02:56:22.322Z,-0.28
2023-02-07T02:59:37.796Z,-0.19
2023-02-07T03:02:45.584Z,-0.18
2023-02-07T03:05:43.649Z,-0.23
2023-02-07T03:08:21.485Z,-0.15
2023-02-07T03:11:10.306Z,-0.16
2023-02-07T03:14:00.357Z,-0.15
2023-02-07T03:17:06.390Z,-0.16
2023-02-07T03:20:18.162Z,-0.17
2023-02-07T03:22:47.623Z,-0.21
2023-02-07T03:25:17.689Z,-0.20
2023-02-07T03:27:47.925Z,-0.18
2023-02-07T03:30:19.478Z,-0.27
2023-02-07T03:32:56.735Z,-0.20
2023-02-07T03:36:06.151Z,-0.21
2023-02-07T03:38:35.035Z,-0.21
2023-02-07T03:41:26.961Z,-0.16
2023-02-07T03:43:55.927Z,-0.15
2023-02-07T03:46:23.754Z,-0.14
2023-02-07T03:48:51.459Z,-0.12
2023-02-07T03:51:19.111Z,-0.14
2023-02-07T03:53:46.738Z,-0.29
2023-02-07T03:56:14.396Z,-0.20
2023-02-07T03:58:42.067Z,-0.30
2023-02-07T04:01:09.843Z,-0.37
2023-02-07T04:03:37.578Z,-0.31
2023-02-07T04:06:05.834Z,-0.40
2023-02-07T04:08:33.593Z,-0.47
2023-02-07T04:11:03.556Z,-0.45
2023-02-07T04:13:31.440Z,-0.49
2023-02-07T04:15:59.420Z,-0.44
2023-02-07T04:18:27.264Z,-0.45
2023-02-07T04:21:07.245Z,-0.44
2023-02-07T04:23:36.274Z,-0.49
2023-02-07T04:26:04.185Z,-0.48
2023-02-07T04:28:32.048Z,-0.51
2023-02-07T04:30:59.822Z,-0.48
2023-02-07T04:33:27.525Z,-0.52
2023-02-07T04:36:01.719Z,-0.57
2023-02-07T04:38:29.928Z,-0.62
2023-02-07T04:41:04.358Z,-0.56
2023-02-07T04:43:35.370Z,-0.55
2023-02-07T04:46:04.637Z,-0.64
2023-02-07T04:48:33.725Z,-0.78
2023-02-07T04:51:01.376Z,-0.89
2023-02-07T04:53:29.101Z,-1.09
2023-02-07T04:55:56.784Z,-1.07
2023-02-07T04:58:24.689Z,-1.08
2023-02-07T05:00:53.999Z,-1.00
2023-02-07T05:03:21.840Z,-0.98
2023-02-07T05:05:49.788Z,-0.94
2023-02-07T05:08:17.546Z,-0.92
2023-02-07T05:10:46.053Z,-0.96
2023-02-07T05:13:13.720Z,-0.98
2023-02-07T05:15:41.371Z,-0.98
2023-02-07T05:18:09.205Z,-0.99
2023-02-07T05:20:36.928Z,-0.96
2023-02-07T05:23:04.666Z,-0.94
2023-02-07T05:25:32.331Z,-0.99
2023-02-07T05:28:00.153Z,-1.07
2023-02-07T05:30:27.905Z,-1.04
2023-02-07T05:33:04.790Z,-1.07
2023-02-07T05:35:40.714Z,-1.07
2023-02-07T05:38:13.515Z,-1.05
2023-02-07T05:40:44.046Z,-1.01
2023-02-07T05:43:15.434Z,-1.04
2023-02-07T05:45:43.214Z,-1.10
2023-02-07T05:48:11.417Z,-1.16
2023-02-07T05:50:39.317Z,-1.15
2023-02-07T05:53:09.142Z,-1.12
2023-02-07T05:55:37.722Z,-1.15
2023-02-07T05:58:05.878Z,-1.18
2023-02-07T06:00:33.582Z,-1.13
2023-02-07T06:03:04.367Z,-1.06
2023-02-07T06:05:33.237Z,-1.06
2023-02-07T06:08:01.368Z,-1.07
2023-02-07T06:10:29.216Z,-1.05
2023-02-07T06:12:57.017Z,-1.07
2023-02-07T06:15:24.868Z,-1.09
2023-02-07T06:17:52.562Z,-1.17
2023-02-07T06:20:20.479Z,-1.18
2023-02-07T06:22:48.371Z,-1.32
2023-02-07T06:25:16.112Z,-1.59
2023-02-07T06:27:43.769Z,-1.80
2023-02-07T06:30:12.526Z,-1.73
2023-02-07T06:32:40.849Z,-1.94
2023-02-07T06:35:09.176Z,-1.93
2023-02-07T06:37:36.848Z,-1.86
2023-02-07T06:40:05.392Z,-1.75
2023-02-07T06:42:33.425Z,-1.71
2023-02-07T06:45:01.200Z,-1.66
2023-02-07T06:47:28.816Z,-1.61
2023-02-07T06:49:56.462Z,-1.64
2023-02-07T06:52:24.128Z,-1.65
2023-02-07T06:54:51.881Z,-1.75
2023-02-07T06:57:19.539Z,-1.68
2023-02-07T06:59:47.175Z,-1.72
2023-02-07T07:02:15.263Z,-1.69
2023-02-07T07:04:42.954Z,-1.63
2023-02-07T07:07:10.762Z,-1.66
2023-02-07T07:09:38.427Z,-1.58
2023-02-07T07:12:06.425Z,-1.55
2023-02-07T07:14:34.393Z,-1.56
2023-02-07T07:17:02.012Z,-1.68
2023-02-07T07:19:30.224Z,-1.71
2023-02-07T07:21:59.107Z,-1.64
2023-02-07T07:24:27.484Z,-1.61
2023-02-07T07:26:56.594Z,-1.66
2023-02-07T07:29:24.409Z,-1.74
2023-02-07T07:31:52.150Z,-1.81
2023-02-07T07:34:20.142Z,-1.76
2023-02-07T07:36:49.382Z,-1.79
2023-02-07T07:39:17.199Z,-1.84
2023-02-07T07:41:44.914Z,-1.85
2023-02-07T07:44:19.361Z,-1.80
2023-02-07T07:46:47.175Z,-1.76
2023-02-07T07:49:15.019Z,-1.74
2023-02-07T07:51:42.814Z,-1.78
2023-02-07T07:54:10.592Z,-1.67
2023-02-07T07:56:38.392Z,-1.64
2023-02-07T07:59:12.195Z,-1.58
2023-02-07T08:01:47.931Z,-1.70
2023-02-07T08:04:15.640Z,-1.72
2023-02-07T08:06:43.324Z,-1.70
2023-02-07T08:09:11.759Z,-1.70
2023-02-07T08:11:39.748Z,-1.52
2023-02-07T08:14:07.654Z,-1.49
2023-02-07T08:16:35.431Z,-1.39
2023-02-07T08:19:04.206Z,-1.32
2023-02-07T08:21:32.502Z,-1.25
2023-02-07T08:24:00.170Z,-1.24
2023-02-07T08:26:27.929Z,-1.13
2023-02-07T08:28:55.593Z,-1.09
2023-02-07T08:31:23.596Z,-1.00
2023-02-07T08:33:51.898Z,-0.98
2023-02-07T08:36:19.616Z,-0.80
2023-02-07T08:38:47.399Z,-0.80
2023-02-07T08:41:15.146Z,-0.66
2023-02-07T08:43:42.912Z,-0.55
2023-02-07T08:46:10.813Z,-0.41
2023-02-07T08:48:38.560Z,-0.29
2023-02-07T08:51:10.439Z,-0.18
2023-02-07T08:53:38.251Z,-0.12
2023-02-07T08:56:06.498Z,-0.07
2023-02-07T08:58:34.243Z,-0.01
2023-02-07T09:01:02.026Z,0.08
2023-02-07T09:03:29.760Z,0.19
2023-02-07T09:05:59.333Z,0.29
2023-02-07T09:08:27.136Z,0.35
2023-02-07T09:10:54.960Z,0.44
2023-02-07T09:13:22.900Z,0.45
2023-02-07T09:15:56.637Z,0.49
2023-02-07T09:18:25.838Z,0.58
2023-02-07T09:20:53.934Z,0.56
2023-02-07T09:23:21.684Z,0.54
2023-02-07T09:25:53.196Z,0.51
2023-02-07T09:28:22.574Z,0.48
2023-02-07T09:30:50.876Z,0.43
2023-02-07T09:33:18.816Z,0.45
2023-02-07T09:35:47.429Z,0.47
2023-02-07T09:38:22.293Z,0.49
2023-02-07T09:40:52.542Z,0.45
2023-02-07T09:43:56.613Z,0.44
2023-02-07T09:46:39.154Z,0.40
2023-02-07T09:49:31.554Z,0.38
2023-02-07T09:52:01.056Z,0.48
2023-02-07T09:54:42.722Z,0.44
2023-02-07T09:57:23.625Z,0.59
2023-02-07T10:00:05.212Z,0.57
2023-02-07T10:03:04.059Z,0.74
2023-02-07T10:05:46.135Z,0.89
2023-02-07T10:08:16.883Z,0.85
2023-02-07T10:11:43.110Z,1.03
2023-02-07T10:14:33.639Z,1.07
2023-02-07T10:17:25.720Z,1.14
2023-02-07T10:20:25.050Z,1.22
2023-02-07T10:22:58.781Z,1.27
2023-02-07T10:25:53.966Z,1.21
2023-02-07T10:29:18.138Z,1.25
2023-02-07T10:31:54.319Z,1.23
2023-02-07T10:34:25.655Z,1.35
2023-02-07T10:36:57.301Z,1.35
2023-02-07T10:39:39.020Z,1.37
2023-02-07T10:42:15.652Z,1.32
2023-02-07T10:44:43.868Z,1.33
2023-02-07T10:47:18.138Z,1.33
2023-02-07T10:49:50.115Z,1.33
2023-02-07T10:52:31.623Z,1.34
2023-02-07T10:55:02.690Z,1.40
2023-02-07T10:57:31.439Z,1.53
2023-02-07T11:00:23.839Z,1.71
2023-02-07T11:03:15.237Z,1.85
2023-02-07T11:06:04.693Z,1.79
2023-02-07T11:08:34.978Z,1.73
2023-02-07T11:11:27.397Z,1.79
2023-02-07T11:13:55.607Z,1.84
2023-02-07T11:16:25.155Z,1.87
2023-02-07T11:19:07.346Z,1.91
2023-02-07T11:21:41.634Z,2.08
2023-02-07T11:24:19.356Z,2.21
2023-02-07T11:27:06.174Z,2.24
2023-02-07T11:29:56.635Z,2.42
2023-02-07T11:32:27.681Z,2.48
2023-02-07T11:35:05.805Z,2.51
2023-02-07T11:37:43.569Z,2.57
2023-02-07T11:40:17.301Z,2.60
2023-02-07T11:42:48.838Z,2.52
2023-02-07T11:45:21.998Z,2.44
2023-02-07T11:47:54.303Z,2.48
2023-02-07T11:50:43.419Z,2.45
2023-02-07T11:53:36.312Z,2.48
2023-02-07T11:56:05.019Z,2.39
2023-02-07T11:58:49.216Z,2.52
2023-02-07T12:01:23.898Z,2.44
2023-02-07T12:04:01.167Z,2.61
2023-02-07T12:06:54.878Z,2.74
2023-02-07T12:09:53.303Z,2.82
2023-02-07T12:12:40.866Z,2.76
2023-02-07T12:15:23.556Z,2.67
2023-02-07T12:18:07.681Z,2.52
2023-02-07T12:20:57.065Z,2.73
2023-02-07T12:23:52.607Z,2.58
2023-02-07T12:26:27.379Z,2.35
2023-02-07T12:29:36.628Z,2.29
2023-02-07T12:32:47.353Z,2.02
2023-02-07T12:35:43.153Z,1.95
2023-02-07T12:38:23.670Z,2.16
2023-02-07T12:41:15.004Z,2.28
2023-02-07T12:43:56.110Z,2.47
2023-02-07T12:46:38.324Z,2.54
2023-02-07T12:49:41.135Z,2.69
2023-02-07T12:52:39.886Z,2.56
2023-02-07T12:55:27.049Z,2.62
2023-02-07T12:58:22.768Z,2.43
2023-02-07T13:00:57.897Z,2.66
2023-02-07T13:03:51.758Z,2.78
2023-02-07T13:07:02.671Z,2.87
2023-02-07T13:09:36.169Z,3.03
2023-02-07T13:12:33.063Z,3.12
2023-02-07T13:15:06.881Z,3.20
2023-02-07T13:18:05.702Z,3.34
2023-02-07T13:20:42.112Z,3.47
2023-02-07T13:23:27.017Z,3.59
2023-02-07T13:26:06.659Z,3.54
2023-02-07T13:28:49.160Z,3.87
2023-02-07T13:31:43.023Z,3.96
2023-02-07T13:34:27.645Z,3.87
2023-02-07T13:36:58.955Z,4.18
2023-02-07T13:39:37.637Z,4.43
2023-02-07T13:42:29.549Z,4.64
2023-02-07T13:45:11.966Z,4.87
2023-02-07T13:47:51.558Z,4.95
2023-02-07T13:50:56.115Z,4.77
2023-02-07T13:53:44.030Z,4.90
2023-02-07T13:56:34.237Z,4.77
2023-02-07T13:59:28.510Z,5.07
2023-02-07T14:02:00.674Z,4.85
2023-02-07T14:05:10.479Z,4.90
2023-02-07T14:07:41.345Z,5.05
2023-02-07T14:10:39.356Z,5.15
2023-02-07T14:13:20.664Z,5.13
2023-02-07T14:15:48.703Z,5.21
2023-02-07T14:18:49.407Z,5.36
2023-02-07T14:21:20.232Z,5.47
2023-02-07T14:24:15.474Z,5.47
2023-02-07T14:26:48.547Z,5.65
2023-02-07T14:29:25.425Z,5.88
2023-02-07T14:32:28.607Z,5.80
2023-02-07T14:35:17.790Z,6.01
2023-02-07T14:37:59.178Z,5.98
2023-02-07T14:40:35.380Z,5.72
2023-02-07T14:43:21.429Z,5.58
2023-02-07T14:45:51.884Z,5.67
2023-02-07T14:48:44.351Z,5.60
2023-02-07T14:51:29.276Z,5.61
2023-02-07T14:54:19.436Z,5.34
2023-02-07T14:57:03.329Z,5.26
2023-02-07T14:59:45.024Z,5.06
2023-02-07T15:02:41.607Z,5.07
2023-02-07T15:05:32.954Z,5.04
2023-02-07T15:08:03.341Z,4.95
2023-02-07T15:10:55.011Z,4.92
2023-02-07T15:13:38.343Z,4.82
2023-02-07T15:16:40.582Z,4.79
2023-02-07T15:19:36.425Z,4.76
2023-02-07T15:22:23.939Z,4.74
2023-02-07T15:24:57.874Z,4.66
2023-02-07T15:27:29.243Z,4.52
2023-02-07T15:30:08.520Z,4.53
2023-02-07T15:32:46.380Z,4.76
2023-02-07T15:35:26.830Z,4.82
2023-02-07T15:38:14.351Z,4.82
2023-02-07T15:40:42.693Z,4.78
2023-02-07T15:43:35.369Z,4.61
2023-02-07T15:46:09.379Z,4.38
2023-02-07T15:48:54.767Z,4.30
2023-02-07T15:51:27.256Z,4.40
2023-02-07T15:54:01.506Z,4.34
2023-02-07T15:56:30.764Z,4.32
2023-02-07T15:59:03.446Z,4.26
2023-02-07T16:01:31.941Z,4.17
2023-02-07T16:04:02.960Z,4.00
2023-02-07T16:06:33.009Z,3.87
2023-02-07T16:09:07.917Z,3.93
2023-02-07T16:11:40.425Z,3.78
2023-02-07T16:14:25.537Z,3.91
2023-02-07T16:16:57.012Z,3.86
2023-02-07T16:19:31.464Z,3.69
2023-02-07T16:22:12.392Z,3.65
2023-02-07T16:24:44.393Z,3.68
2023-02-07T16:27:27.528Z,3.74
2023-02-07T16:29:59.029Z,3.47
2023-02-07T16:32:34.347Z,3.44
2023-02-07T16:35:02.034Z,3.39
2023-02-07T16:37:32.427Z,3.35
2023-02-07T16:40:02.262Z,3.18
2023-02-07T16:42:32.674Z,3.13
2023-02-07T16:45:00.540Z,3.01
2023-02-07T16:47:28.240Z,2.94
2023-02-07T16:49:55.938Z,2.86
2023-02-07T16:52:23.602Z,2.78
2023-02-07T16:54:51.274Z,2.61
2023-02-07T16:57:18.924Z,2.66
2023-02-07T16:59:46.611Z,2.50
2023-02-07T17:02:16.406Z,2.31
2023-02-07T17:04:44.170Z,2.18
2023-02-07T17:07:12.342Z,2.05
2023-02-07T17:09:40.057Z,2.02
2023-02-07T17:12:09.081Z,2.10
2023-02-07T17:14:38.241Z,2.12
2023-02-07T17:17:05.936Z,2.09
2023-02-07T17:19:33.709Z,2.06
2023-02-07T17:22:01.373Z,2.01
2023-02-07T17:24:29.212Z,1.94
2023-02-07T17:26:57.282Z,1.91
2023-02-07T17:29:25.164Z,1.92
2023-02-07T17:31:52.962Z,1.89
2023-02-07T17:34:20.679Z,1.87
2023-02-07T17:36:50.255Z,1.86
2023-02-07T17:39:20.271Z,1.83
2023-02-07T17:41:48.912Z,1.74
2023-02-07T17:44:21.228Z,1.61
2023-02-07T17:46:49.461Z,1.56
2023-02-07T17:49:17.832Z,1.50
2023-02-07T17:51:45.512Z,1.51
2023-02-07T17:54:13.276Z,1.50
2023-02-07T17:56:40.996Z,1.38
2023-02-07T17:59:22.800Z,1.41
2023-02-07T18:01:51.198Z,1.36
2023-02-07T18:04:18.927Z,1.33
2023-02-07T18:06:46.689Z,1.42
2023-02-07T18:09:18.868Z,1.37
2023-02-07T18:11:47.063Z,1.29
2023-02-07T18:14:14.712Z,1.23
2023-02-07T18:16:42.626Z,1.20
2023-02-07T18:19:15.935Z,1.10
2023-02-07T18:21:44.921Z,1.03
2023-02-07T18:24:13.136Z,1.04
2023-02-07T18:26:41.009Z,1.04
2023-02-07T18:29:09.799Z,1.00
2023-02-07T18:31:38.510Z,0.94
2023-02-07T18:34:06.781Z,0.88
2023-02-07T18:36:40.186Z,0.87
2023-02-07T18:39:11.932Z,0.84
2023-02-07T18:41:39.814Z,0.80
2023-02-07T18:44:07.763Z,0.79
2023-02-07T18:46:35.526Z,0.74
2023-02-07T18:49:03.468Z,0.73
2023-02-07T18:51:31.152Z,0.72
2023-02-07T18:53:58.764Z,0.67
2023-02-07T18:56:26.847Z,0.71
2023-02-07T18:58:56.830Z,0.67
2023-02-07T19:01:27.860Z,0.61
2023-02-07T19:03:58.083Z,0.59
2023-02-07T19:06:29.907Z,0.51
2023-02-07T19:08:59.214Z,0.50
2023-02-07T19:11:27.361Z,0.42
2023-02-07T19:13:55.159Z,0.43
2023-02-07T19:16:24.544Z,0.36
2023-02-07T19:18:52.400Z,0.27
2023-02-07T19:21:27.229Z,0.31
2023-02-07T19:23:57.209Z,0.22
2023-02-07T19:26:25.629Z,0.17
2023-02-07T19:28:53.483Z,0.17
2023-02-07T19:31:22.424Z,0.13
2023-02-07T19:33:50.723Z,0.10
2023-02-07T19:36:22.252Z,0.09
2023-02-07T19:38:53.730Z,-0.01
2023-02-07T19:41:24.173Z,-0.03
2023-02-07T19:43:52.691Z,-0.07
2023-02-07T19:46:21.425Z,-0.03
2023-02-07T19:48:49.858Z,-0.06
2023-02-07T19:51:29.502Z,-0.10
2023-02-07T19:53:57.564Z,-0.08
2023-02-07T19:56:29.823Z,-0.04
2023-02-07T19:58:58.002Z,-0.08
2023-02-07T20:01:26.358Z,-0.10
2023-02-07T20:03:55.749Z,-0.06
2023-02-07T20:06:32.871Z,-0.06
2023-02-07T20:09:04.088Z,-0.13
2023-02-07T20:11:32.300Z,-0.10
2023-02-07T20:14:05.888Z,-0.08
2023-02-07T20:16:37.410Z,-0.06
2023-02-07T20:19:07.691Z,-0.12
2023-02-07T20:21:37.011Z,-0.06
2023-02-07T20:24:05.751Z,-0.12
2023-02-07T20:26:42.984Z,-0.10
2023-02-07T20:29:14.859Z,-0.17
2023-02-07T20:31:44.572Z,-0.18
2023-02-07T20:34:15.661Z,-0.13
2023-02-07T20:36:43.846Z,-0.19
2023-02-07T20:39:18.171Z,-0.18
2023-02-07T20:41:47.420Z,-0.23
2023-02-07T20:44:22.892Z,-0.38
2023-02-07T20:46:51.140Z,-0.43
2023-02-07T20:49:24.982Z,-0.45
2023-02-07T20:51:55.095Z,-0.40
2023-02-07T20:54:26.291Z,-0.39
2023-02-07T20:56:55.244Z,-0.45
2023-02-07T20:59:29.610Z,-0.50
2023-02-07T21:01:57.808Z,-0.48
2023-02-07T21:04:26.610Z,-0.58
2023-02-07T21:06:54.894Z,-0.61
2023-02-07T21:09:23.200Z,-0.59
2023-02-07T21:11:53.282Z,-0.58
2023-02-07T21:14:30.238Z,-0.58
2023-02-07T21:17:06.496Z,-0.65
2023-02-07T21:19:36.510Z,-0.68
2023-02-07T21:22:05.111Z,-0.66
2023-02-07T21:24:33.089Z,-0.71
2023-02-07T21:27:03.549Z,-0.77
2023-02-07T21:29:34.045Z,-0.80
2023-02-07T21:32:02.576Z,-0.87
2023-02-07T21:34:30.259Z,-0.86
2023-02-07T21:36:58.140Z,-0.86
2023-02-07T21:39:25.828Z,-0.88
2023-02-07T21:41:53.717Z,-0.83
2023-02-07T21:44:22.280Z,-0.81
2023-02-07T21:46:51.032Z,-0.84
2023-02-07T21:49:20.751Z,-0.84
2023-02-07T21:51:49.994Z,-0.82
2023-02-07T21:54:17.930Z,-0.88
2023-02-07T21:56:46.056Z,-0.90
2023-02-07T21:59:21.004Z,-0.85
2023-02-07T22:01:49.024Z,-0.86
2023-02-07T22:04:17.833Z,-0.86
2023-02-07T22:06:47.989Z,-0.93
2023-02-07T22:09:18.602Z,-0.99
2023-02-07T22:11:46.428Z,-0.98
2023-02-07T22:14:14.967Z,-0.98
2023-02-07T22:16:42.957Z,-1.01
2023-02-07T22:19:13.742Z,-1.04
2023-02-07T22:21:41.531Z,-1.04
2023-02-07T22:24:12.535Z,-1.09
2023-02-07T22:26:40.364Z,-1.22
2023-02-07T22:29:09.075Z,-1.22
2023-02-07T22:31:39.482Z,-1.21
2023-02-07T22:34:13.983Z,-1.28
2023-02-07T22:36:44.492Z,-1.41
2023-02-07T22:39:15.191Z,-1.36
2023-02-07T22:41:43.132Z,-1.38
2023-02-07T22:44:11.255Z,-1.45
2023-02-07T22:46:39.213Z,-1.46
2023-02-07T22:49:07.196Z,-1.49
2023-02-07T22:51:37.503Z,-1.38
2023-02-07T22:54:09.645Z,-1.41
2023-02-07T22:56:38.348Z,-1.39
2023-02-07T22:59:06.294Z,-1.40
2023-02-07T23:01:38.961Z,-1.40
2023-02-07T23:04:15.717Z,-1.43
2023-02-07T23:06:47.838Z,-1.39
2023-02-07T23:09:16.331Z,-1.42
2023-02-07T23:11:44.211Z,-1.35
2023-02-07T23:14:12.371Z,-1.35
2023-02-07T23:16:40.882Z,-1.35
2023-02-07T23:19:15.216Z,-1.37
2023-02-07T23:21:44.147Z,-1.34
2023-02-07T23:24:11.828Z,-1.36
2023-02-07T23:26:39.540Z,-1.41
2023-02-07T23:29:07.391Z,-1.44
2023-02-07T23:31:35.204Z,-1.57
2023-02-07T23:34:03.072Z,-1.58
2023-02-07T23:36:30.861Z,-1.51
2023-02-07T23:38:58.572Z,-1.53
2023-02-07T23:41:26.288Z,-1.60
2023-02-07T23:43:54.095Z,-1.57
2023-02-07T23:46:21.763Z,-1.55
2023-02-07T23:48:49.552Z,-1.58
2023-02-07T23:51:17.143Z,-1.65
2023-02-07T23:53:45.445Z,-1.63
2023-02-07T23:56:20.612Z,-1.60
2023-02-07T23:58:50.044Z,-1.67
